createdAt,value
2022-12-23T00:01:23.652Z,37.10
2022-12-23T00:03:50.933Z,33.67
2022-12-23T00:06:18.805Z,33.95
2022-12-23T00:08:46.585Z,32.50
2022-12-23T00:11:20.045Z,33.15
2022-12-23T00:14:05.325Z,31.58
2022-12-23T00:16:32.017Z,35.55
2022-12-23T00:18:58.539Z,32.90
2022-12-23T00:21:24.958Z,36.95
2022-12-23T00:23:51.873Z,32.55
2022-12-23T00:26:23.558Z,34.38
2022-12-23T00:28:50.713Z,31.90
2022-12-23T00:31:18.760Z,34.83
2022-12-23T00:33:48.320Z,34.15
2022-12-23T00:36:19.138Z,34.20
2022-12-23T00:39:05.000Z,33.28
2022-12-23T00:41:50.772Z,33.13
2022-12-23T00:44:17.288Z,31.33
2022-12-23T00:46:43.811Z,34.63
2022-12-23T00:49:32.720Z,33.83
2022-12-23T00:52:00.049Z,34.45
2022-12-23T00:54:26.841Z,34.25
2022-12-23T00:56:53.536Z,31.13
2022-12-23T00:59:20.139Z,33.20
2022-12-23T01:02:05.667Z,32.22
2022-12-23T01:04:50.930Z,33.13
2022-12-23T01:07:17.393Z,33.13
2022-12-23T01:09:43.864Z,33.08
2022-12-23T01:12:10.316Z,32.50
2022-12-23T01:14:36.851Z,32.63
2022-12-23T01:17:03.490Z,35.33
2022-12-23T01:19:30.004Z,31.10
2022-12-23T01:21:56.500Z,29.13
2022-12-23T01:24:23.110Z,30.45
2022-12-23T01:26:49.529Z,33.35
2022-12-23T01:29:15.970Z,31.80
2022-12-23T01:31:42.437Z,33.47
2022-12-23T01:34:10.331Z,34.03
2022-12-23T01:36:37.151Z,32.97
2022-12-23T01:39:03.633Z,35.25
2022-12-23T01:41:51.032Z,32.22
2022-12-23T01:44:50.728Z,31.65
2022-12-23T01:47:31.370Z,32.92
2022-12-23T01:50:22.118Z,33.17
2022-12-23T01:53:07.770Z,36.33
2022-12-23T01:55:42.213Z,36.38
2022-12-23T01:58:20.732Z,33.20
2022-12-23T02:01:05.910Z,34.05
2022-12-23T02:03:44.786Z,34.08
2022-12-23T02:06:40.628Z,33.83
2022-12-23T02:09:18.441Z,33.17
2022-12-23T02:12:06.569Z,31.85
2022-12-23T02:15:30.468Z,34.47
2022-12-23T02:18:24.460Z,35.47
2022-12-23T02:21:15.475Z,33.08
2022-12-23T02:23:53.971Z,33.28
2022-12-23T02:26:42.218Z,32.03
2022-12-23T02:29:46.044Z,34.03
2022-12-23T02:32:35.259Z,33.33
2022-12-23T02:35:13.382Z,34.13
2022-12-23T02:38:00.705Z,35.50
2022-12-23T02:40:39.203Z,35.78
2022-12-23T02:43:25.092Z,31.50
2022-12-23T02:46:21.226Z,37.92
2022-12-23T02:48:53.184Z,34.08
2022-12-23T02:51:23.754Z,33.17
2022-12-23T02:53:54.680Z,33.80
2022-12-23T02:56:25.072Z,32.13
2022-12-23T02:58:58.463Z,37.03
2022-12-23T03:01:27.518Z,32.70
2022-12-23T03:03:54.226Z,33.20
2022-12-23T03:06:35.892Z,37.92
2022-12-23T03:09:02.417Z,32.45
2022-12-23T03:11:58.517Z,33.90
2022-12-23T03:14:36.341Z,32.47
2022-12-23T03:17:34.537Z,34.03
2022-12-23T03:20:19.382Z,34.70
2022-12-23T03:22:55.761Z,34.05
2022-12-23T03:25:33.040Z,35.85
2022-12-23T03:28:09.587Z,32.08
2022-12-23T03:30:39.315Z,34.97
2022-12-23T03:33:13.863Z,33.50
2022-12-23T03:35:45.331Z,36.53
2022-12-23T03:38:15.407Z,34.72
2022-12-23T03:40:47.904Z,35.63
2022-12-23T03:43:26.703Z,35.03
2022-12-23T03:45:59.084Z,37.67
2022-12-23T03:48:54.194Z,34.05
2022-12-23T03:51:26.895Z,35.75
2022-12-23T03:54:03.599Z,34.80
2022-12-23T03:56:38.618Z,34.05
2022-12-23T03:59:19.933Z,34.95
2022-12-23T04:02:07.060Z,34.15
2022-12-23T04:04:42.441Z,35.85
2022-12-23T04:07:41.612Z,32.38
2022-12-23T04:10:09.745Z,35.92
2022-12-23T04:12:36.710Z,33.38
2022-12-23T04:15:09.030Z,34.17
2022-12-23T04:17:39.007Z,33.50
2022-12-23T04:20:06.579Z,34.13
2022-12-23T04:22:33.023Z,35.20
2022-12-23T04:24:59.442Z,32.65
2022-12-23T04:27:25.892Z,32.15
2022-12-23T04:29:52.835Z,33.80
2022-12-23T04:32:19.284Z,32.70
2022-12-23T04:34:45.778Z,33.63
2022-12-23T04:37:12.203Z,29.33
2022-12-23T04:39:38.624Z,34.08
2022-12-23T04:42:05.116Z,30.27
2022-12-23T04:44:31.519Z,30.10
2022-12-23T04:46:58.044Z,31.30
2022-12-23T04:49:24.489Z,31.15
2022-12-23T04:51:50.947Z,30.27
2022-12-23T04:54:17.357Z,34.63
2022-12-23T04:56:43.787Z,32.00
2022-12-23T04:59:10.417Z,34.50
2022-12-23T05:01:37.038Z,34.17
2022-12-23T05:04:03.551Z,33.67
2022-12-23T05:06:30.006Z,34.63
2022-12-23T05:08:56.453Z,34.42
2022-12-23T05:11:23.071Z,31.75
2022-12-23T05:13:49.561Z,31.95
2022-12-23T05:16:16.061Z,32.25
2022-12-23T05:18:42.708Z,33.45
2022-12-23T05:21:09.579Z,37.30
2022-12-23T05:23:36.017Z,32.30
2022-12-23T05:26:02.581Z,29.50
2022-12-23T05:28:29.522Z,32.65
2022-12-23T05:31:04.130Z,35.08
2022-12-23T05:33:30.959Z,34.28
2022-12-23T05:35:57.789Z,32.88
2022-12-23T05:38:24.373Z,30.67
2022-12-23T05:40:51.973Z,33.53
2022-12-23T05:43:18.502Z,34.35
2022-12-23T05:45:45.225Z,30.23
2022-12-23T05:48:11.903Z,33.58
2022-12-23T05:50:39.296Z,28.60
2022-12-23T05:53:07.072Z,35.45
2022-12-23T05:55:34.623Z,30.08
2022-12-23T05:58:01.056Z,34.60
2022-12-23T06:00:27.701Z,31.27
2022-12-23T06:02:54.639Z,33.53
2022-12-23T06:05:21.942Z,31.40
2022-12-23T06:07:48.764Z,28.58
2022-12-23T06:10:15.216Z,32.83
2022-12-23T06:12:41.665Z,30.52
2022-12-23T06:15:08.623Z,30.27
2022-12-23T06:17:35.220Z,30.60
2022-12-23T06:20:01.770Z,30.55
2022-12-23T06:22:28.226Z,32.80
2022-12-23T06:24:54.599Z,34.85
2022-12-23T06:27:21.014Z,30.88
2022-12-23T06:29:47.944Z,32.60
2022-12-23T06:32:14.475Z,30.40
2022-12-23T06:34:41.002Z,31.55
2022-12-23T06:37:07.474Z,33.10
2022-12-23T06:39:33.927Z,35.38
2022-12-23T06:42:00.379Z,35.17
2022-12-23T06:44:26.902Z,37.28
2022-12-23T06:46:53.314Z,38.42
2022-12-23T06:49:19.719Z,35.45
2022-12-23T06:51:46.140Z,34.65
2022-12-23T06:54:12.837Z,35.40
2022-12-23T06:56:39.623Z,37.03
2022-12-23T06:59:06.108Z,38.55
2022-12-23T07:01:32.737Z,39.03
2022-12-23T07:03:59.303Z,38.10
2022-12-23T07:06:25.737Z,41.33
2022-12-23T07:08:52.116Z,42.03
2022-12-23T07:11:18.551Z,40.90
2022-12-23T07:13:46.006Z,42.13
2022-12-23T07:16:12.841Z,41.85
2022-12-23T07:18:39.325Z,41.00
2022-12-23T07:21:08.851Z,40.95
2022-12-23T07:26:06.319Z,42.42
2022-12-23T07:28:32.721Z,44.63
2022-12-23T07:30:59.169Z,43.13
2022-12-23T07:33:25.599Z,43.10
2022-12-23T07:35:52.031Z,42.35
2022-12-23T07:38:18.493Z,45.92
2022-12-23T07:40:48.674Z,45.67
2022-12-23T07:43:15.315Z,45.17
2022-12-23T07:45:41.889Z,42.35
2022-12-23T07:48:08.800Z,42.33
2022-12-23T07:50:35.275Z,44.38
2022-12-23T07:53:01.748Z,42.05
2022-12-23T07:55:28.247Z,41.45
2022-12-23T07:57:54.652Z,43.13
2022-12-23T08:00:21.404Z,40.75
2022-12-23T08:02:48.184Z,41.75
2022-12-23T08:05:16.302Z,38.10
2022-12-23T08:07:44.938Z,37.42
2022-12-23T08:10:12.173Z,39.20
2022-12-23T08:12:38.796Z,36.45
2022-12-23T08:15:05.888Z,41.08
2022-12-23T08:17:32.357Z,35.03
2022-12-23T08:19:58.787Z,37.80
2022-12-23T08:22:25.356Z,35.05
2022-12-23T08:24:52.556Z,38.05
2022-12-23T08:27:19.505Z,37.50
2022-12-23T08:29:45.907Z,36.58
2022-12-23T08:32:12.438Z,36.75
2022-12-23T08:34:39.015Z,38.03
2022-12-23T08:37:05.450Z,35.35
2022-12-23T08:39:32.037Z,33.70
2022-12-23T08:41:58.790Z,37.20
2022-12-23T08:44:28.352Z,34.58
2022-12-23T08:46:55.625Z,32.60
2022-12-23T08:49:22.156Z,36.58
2022-12-23T08:51:48.847Z,38.45
2022-12-23T08:54:15.799Z,38.00
2022-12-23T08:56:42.811Z,37.35
2022-12-23T08:59:18.685Z,33.90
2022-12-23T09:01:47.178Z,33.78
2022-12-23T09:04:13.684Z,37.45
2022-12-23T09:06:42.068Z,34.05
2022-12-23T09:09:10.501Z,37.30
2022-12-23T09:11:37.425Z,33.30
2022-12-23T09:14:04.701Z,34.08
2022-12-23T09:16:31.526Z,35.08
2022-12-23T09:18:58.161Z,34.83
2022-12-23T09:21:24.904Z,35.25
2022-12-23T09:23:51.869Z,31.15
2022-12-23T09:26:27.006Z,29.23
2022-12-23T09:28:54.049Z,31.98
2022-12-23T09:31:21.615Z,29.30
2022-12-23T09:33:49.901Z,29.77
2022-12-23T09:36:17.206Z,27.75
2022-12-23T09:38:43.723Z,28.08
2022-12-23T09:41:36.035Z,27.63
2022-12-23T09:44:20.152Z,29.80
2022-12-23T09:47:00.647Z,28.42
2022-12-23T09:49:27.545Z,26.60
2022-12-23T09:52:00.242Z,28.83
2022-12-23T09:54:29.395Z,24.58
2022-12-23T09:57:03.637Z,26.30
2022-12-23T09:59:52.172Z,29.02
2022-12-23T10:03:00.481Z,29.17
2022-12-23T10:05:59.079Z,24.83
2022-12-23T10:08:28.597Z,25.15
2022-12-23T10:11:03.522Z,23.50
2022-12-23T10:13:38.154Z,26.10
2022-12-23T10:16:13.224Z,23.27
2022-12-23T10:18:55.676Z,21.42
2022-12-23T10:21:48.159Z,22.65
2022-12-23T10:24:24.289Z,25.38
2022-12-23T10:26:57.412Z,26.00
2022-12-23T10:29:33.909Z,20.20
2022-12-23T10:32:26.413Z,22.95
2022-12-23T10:35:20.905Z,22.25
2022-12-23T10:38:04.042Z,24.48
2022-12-23T10:40:30.371Z,22.33
2022-12-23T10:43:27.316Z,21.35
2022-12-23T10:46:10.227Z,21.20
2022-12-23T10:49:06.088Z,21.60
2022-12-23T10:51:47.378Z,20.90
2022-12-23T10:54:32.266Z,23.17
2022-12-23T10:59:31.775Z,19.52
2022-12-23T11:02:28.030Z,20.08
2022-12-23T11:04:54.574Z,19.88
2022-12-23T11:07:44.220Z,22.27
2022-12-23T11:10:20.809Z,22.70
2022-12-23T11:12:50.806Z,18.77
2022-12-23T11:15:26.497Z,20.13
2022-12-23T11:18:11.547Z,22.08
2022-12-23T11:20:40.197Z,22.73
2022-12-23T11:23:23.861Z,20.05
2022-12-23T11:26:01.525Z,18.85
2022-12-23T11:28:28.922Z,22.23
2022-12-23T11:31:09.726Z,21.15
2022-12-23T11:33:39.627Z,22.98
2022-12-23T11:36:12.134Z,19.48
2022-12-23T11:38:51.675Z,20.88
2022-12-23T11:41:24.969Z,20.73
2022-12-23T11:43:59.447Z,22.50
2022-12-23T11:46:34.454Z,20.42
2022-12-23T11:49:22.263Z,23.08
2022-12-23T11:52:04.827Z,19.27
2022-12-23T11:54:32.364Z,22.20
2022-12-23T11:57:01.525Z,22.75
2022-12-23T11:59:39.614Z,22.45
2022-12-23T12:02:18.756Z,20.10
2022-12-23T12:05:01.037Z,18.15
2022-12-23T12:07:27.794Z,20.33
2022-12-23T12:09:59.100Z,19.25
2022-12-23T12:12:27.479Z,19.52
2022-12-23T12:14:56.579Z,16.90
2022-12-23T12:17:46.941Z,21.95
2022-12-23T12:20:28.966Z,18.80
2022-12-23T12:23:29.482Z,19.05
2022-12-23T12:26:04.627Z,18.73
2022-12-23T12:28:41.993Z,21.10
2022-12-23T12:31:20.331Z,19.83
2022-12-23T12:33:57.719Z,20.42
2022-12-23T12:36:43.727Z,19.30
2022-12-23T12:39:21.154Z,17.60
2022-12-23T12:42:01.821Z,18.45
2022-12-23T12:44:43.379Z,20.08
2022-12-23T12:47:28.507Z,18.23
2022-12-23T12:50:07.664Z,19.67
2022-12-23T12:52:40.346Z,17.67
2022-12-23T12:55:33.019Z,17.75
2022-12-23T12:58:02.808Z,21.83
2022-12-23T13:00:43.371Z,18.65
2022-12-23T13:03:24.876Z,18.63
2022-12-23T13:06:22.222Z,20.48
2022-12-23T13:08:55.991Z,17.52
2022-12-23T13:11:37.701Z,19.52
2022-12-23T13:14:15.700Z,19.40
2022-12-23T13:16:48.159Z,17.58
2022-12-23T13:19:27.174Z,21.25
2022-12-23T13:22:08.921Z,16.33
2022-12-23T13:25:06.044Z,16.63
2022-12-23T13:27:46.419Z,18.42
2022-12-23T13:30:17.789Z,16.52
2022-12-23T13:33:02.062Z,15.38
2022-12-23T13:35:33.275Z,15.10
2022-12-23T13:38:22.848Z,17.58
2022-12-23T13:41:06.462Z,14.65
2022-12-23T13:43:43.554Z,15.95
2022-12-23T13:46:31.693Z,23.90
2022-12-23T13:49:02.403Z,20.58
2022-12-23T13:52:00.304Z,19.67
2022-12-23T13:54:50.699Z,17.92
2022-12-23T13:57:45.041Z,20.17
2022-12-23T14:00:17.780Z,17.95
2022-12-23T14:03:02.753Z,20.38
2022-12-23T14:05:44.843Z,17.85
2022-12-23T14:08:29.215Z,17.55
2022-12-23T14:13:30.229Z,17.05
2022-12-23T14:16:19.340Z,15.90
2022-12-23T14:19:01.955Z,16.45
2022-12-23T14:21:41.571Z,14.23
2022-12-23T14:24:23.031Z,15.27
2022-12-23T14:27:14.821Z,17.67
2022-12-23T14:30:19.447Z,19.33
2022-12-23T14:32:51.551Z,15.52
2022-12-23T14:35:20.868Z,15.85
2022-12-23T14:38:15.721Z,16.02
2022-12-23T14:40:42.063Z,15.38
2022-12-23T14:43:25.391Z,15.15
2022-12-23T14:45:57.065Z,15.30
2022-12-23T14:48:35.644Z,16.50
2022-12-23T14:51:09.059Z,18.17
2022-12-23T14:53:56.933Z,15.40
2022-12-23T14:56:38.560Z,15.85
2022-12-23T14:59:23.290Z,18.92
2022-12-23T15:01:56.700Z,18.42
2022-12-23T15:04:33.617Z,16.13
2022-12-23T15:07:05.334Z,16.55
2022-12-23T15:09:37.400Z,14.82
2022-12-23T15:12:18.697Z,15.65
2022-12-23T15:14:55.488Z,17.13
2022-12-23T15:17:27.534Z,18.27
2022-12-23T15:20:02.246Z,16.23
2022-12-23T15:22:32.806Z,17.63
2022-12-23T15:24:59.432Z,17.13
2022-12-23T15:27:29.826Z,16.15
2022-12-23T15:29:57.631Z,16.38
2022-12-23T15:32:26.156Z,19.48
2022-12-23T15:35:02.283Z,16.48
2022-12-23T15:37:30.745Z,16.08
2022-12-23T15:40:04.879Z,16.13
2022-12-23T15:42:38.192Z,16.38
2022-12-23T15:45:31.224Z,16.58
2022-12-23T15:47:57.860Z,19.17
2022-12-23T15:50:24.664Z,16.35
2022-12-23T15:52:54.414Z,18.20
2022-12-23T15:55:27.673Z,20.38
2022-12-23T15:57:54.413Z,22.13
2022-12-23T16:00:24.610Z,23.20
2022-12-23T16:03:02.465Z,22.35
2022-12-23T16:05:35.740Z,20.48
2022-12-23T16:08:24.600Z,21.33
2022-12-23T16:11:01.036Z,24.73
2022-12-23T16:13:27.500Z,22.85
2022-12-23T16:15:54.977Z,21.67
2022-12-23T16:18:29.866Z,25.30
2022-12-23T16:21:00.640Z,25.30
2022-12-23T16:23:32.919Z,23.70
2022-12-23T16:26:01.520Z,25.42
2022-12-23T16:28:34.905Z,23.02
2022-12-23T16:31:05.409Z,26.80
2022-12-23T16:33:36.926Z,32.35
2022-12-23T16:36:22.168Z,25.67
2022-12-23T16:38:49.719Z,32.05
2022-12-23T16:41:16.427Z,27.90
2022-12-23T16:43:51.493Z,25.58
2022-12-23T16:46:20.936Z,26.38
2022-12-23T16:48:50.371Z,27.58
2022-12-23T16:51:20.204Z,28.23
2022-12-23T16:53:51.695Z,26.70
2022-12-23T16:56:20.788Z,29.55
2022-12-23T16:58:47.236Z,29.25
2022-12-23T17:01:26.961Z,32.45
2022-12-23T17:03:53.977Z,30.45
2022-12-23T17:06:20.712Z,30.80
2022-12-23T17:08:47.582Z,28.35
2022-12-23T17:11:23.252Z,29.23
2022-12-23T17:13:49.732Z,29.85
2022-12-23T17:16:21.886Z,33.75
2022-12-23T17:18:49.521Z,29.27
2022-12-23T17:21:27.980Z,31.65
2022-12-23T17:24:02.215Z,29.10
2022-12-23T17:26:28.644Z,31.05
2022-12-23T17:28:55.064Z,30.20
2022-12-23T17:31:27.056Z,25.27
2022-12-23T17:33:54.384Z,31.80
2022-12-23T17:36:21.484Z,27.17
2022-12-23T17:38:47.964Z,28.25
2022-12-23T17:41:23.348Z,30.02
2022-12-23T17:43:49.812Z,28.50
2022-12-23T17:46:16.344Z,27.65
2022-12-23T17:48:42.915Z,29.75
2022-12-23T17:51:15.156Z,29.95
2022-12-23T17:53:42.119Z,27.23
2022-12-23T17:56:16.799Z,30.92
2022-12-23T17:58:45.084Z,28.23
2022-12-23T18:01:24.903Z,25.45
2022-12-23T18:03:52.364Z,26.77
2022-12-23T18:06:21.425Z,29.50
2022-12-23T18:08:48.605Z,25.85
2022-12-23T18:11:38.409Z,27.92
2022-12-23T18:14:04.925Z,27.38
2022-12-23T18:16:31.481Z,30.70
2022-12-23T18:18:58.031Z,29.05
2022-12-23T18:21:26.801Z,28.70
2022-12-23T18:23:59.447Z,31.83
2022-12-23T18:26:26.454Z,28.48
2022-12-23T18:28:54.095Z,27.67
2022-12-23T18:31:24.063Z,29.30
2022-12-23T18:33:51.003Z,30.10
2022-12-23T18:36:25.491Z,27.52
2022-12-23T18:38:52.570Z,27.30
2022-12-23T18:41:19.953Z,26.60
2022-12-23T18:43:46.591Z,26.67
2022-12-23T18:46:13.337Z,26.55
2022-12-23T18:48:39.812Z,29.35
2022-12-23T18:51:06.508Z,32.45
2022-12-23T18:53:32.946Z,27.98
2022-12-23T18:55:59.461Z,26.85
2022-12-23T18:58:25.921Z,26.70
2022-12-23T19:00:56.743Z,27.52
2022-12-23T19:03:30.974Z,29.52
2022-12-23T19:08:27.503Z,23.88
2022-12-23T19:10:55.429Z,26.08
2022-12-23T19:13:21.895Z,26.80
2022-12-23T19:15:48.482Z,28.58
2022-12-23T19:18:17.207Z,26.42
2022-12-23T19:20:45.219Z,26.00
2022-12-23T19:23:11.699Z,27.92
2022-12-23T19:25:42.200Z,28.23
2022-12-23T19:28:09.571Z,28.90
2022-12-23T19:30:36.326Z,27.88
2022-12-23T19:33:02.835Z,25.88
2022-12-23T19:35:29.233Z,26.52
2022-12-23T19:37:55.744Z,27.98
2022-12-23T23:40:01.079Z,12.25
2022-12-23T23:42:27.732Z,12.63
2022-12-23T23:44:54.297Z,11.88
2022-12-23T23:47:20.749Z,13.60
2022-12-23T23:49:47.192Z,13.43
2022-12-23T23:52:13.687Z,12.95
2022-12-23T23:54:40.137Z,12.90
2022-12-23T23:57:06.548Z,12.40
2022-12-23T23:59:32.990Z,12.80
